createdAt,value
2023-01-29T00:10:58.688Z,85.8
2023-01-29T00:22:58.759Z,86.5
2023-01-29T00:34:58.706Z,87.3
2023-01-29T00:46:58.741Z,88.1
2023-01-29T00:58:58.736Z,89.4
2023-01-29T01:10:58.740Z,89.9
2023-01-29T01:22:58.728Z,90.4
2023-01-29T01:34:58.692Z,90.4
2023-01-29T01:46:58.616Z,90.5
2023-01-29T01:58:58.634Z,90.7
2023-01-29T02:10:58.624Z,92.6
2023-01-29T02:22:58.688Z,91.7
2023-01-29T02:34:58.618Z,92.2
2023-01-29T02:46:58.766Z,93.0
2023-01-29T02:58:58.717Z,94.1
2023-01-29T03:10:58.615Z,93.5
2023-01-29T03:22:58.634Z,93.6
2023-01-29T03:34:58.620Z,94.1
2023-01-29T03:46:58.637Z,94.8
2023-01-29T03:58:58.620Z,95.5
2023-01-29T04:10:58.733Z,95.1
2023-01-29T04:22:58.738Z,94.8
2023-01-29T04:34:58.617Z,95.3
2023-01-29T04:46:58.703Z,95.6
2023-01-29T04:58:58.617Z,96.0
2023-01-29T05:10:58.731Z,96.0
2023-01-29T05:22:58.727Z,96.8
2023-01-29T05:34:58.645Z,97.2
2023-01-29T05:46:58.614Z,97.0
2023-01-29T05:58:58.697Z,96.4
2023-01-29T06:10:58.726Z,96.4
2023-01-29T06:22:58.708Z,95.8
2023-01-29T06:34:58.636Z,95.7
2023-01-29T06:46:58.624Z,96.0
2023-01-29T06:58:58.624Z,96.0
2023-01-29T07:10:58.617Z,96.1
2023-01-29T07:22:58.730Z,95.8
2023-01-29T07:34:58.713Z,94.8
2023-01-29T07:46:58.743Z,93.6
2023-01-29T07:58:58.694Z,92.7
2023-01-29T08:10:58.737Z,92.7
2023-01-29T08:22:58.707Z,91.4
2023-01-29T08:34:58.615Z,90.9
2023-01-29T08:46:58.705Z,89.1
2023-01-29T08:58:59.254Z,87.5
2023-01-29T09:10:58.643Z,86.5
2023-01-29T09:22:58.614Z,86.7
2023-01-29T09:34:58.637Z,85.6
2023-01-29T09:46:58.854Z,85.4
2023-01-29T09:59:00.634Z,85.4
2023-01-29T10:10:58.618Z,84.7
2023-01-29T10:22:58.614Z,84.0
2023-01-29T10:34:58.619Z,83.5
2023-01-29T10:46:58.777Z,84.8
2023-01-29T10:58:58.625Z,83.2
2023-01-29T11:10:58.614Z,83.5
2023-01-29T11:22:58.637Z,82.9
2023-01-29T11:34:58.639Z,83.0
2023-01-29T11:46:58.682Z,81.7
2023-01-29T11:58:58.700Z,83.2
2023-01-29T12:10:58.615Z,81.4
2023-01-29T12:22:58.627Z,79.8
2023-01-29T12:34:58.617Z,78.2
2023-01-29T12:46:58.742Z,78.6
2023-01-29T12:58:58.734Z,78.8
2023-01-29T13:10:58.716Z,78.5
2023-01-29T13:22:58.713Z,78.2
2023-01-29T13:34:58.615Z,78.0
2023-01-29T13:46:58.618Z,78.1
2023-01-29T13:58:58.776Z,77.1
2023-01-29T14:10:58.724Z,77.3
2023-01-29T14:22:58.621Z,76.9
2023-01-29T14:34:58.726Z,77.4
2023-01-29T14:46:58.743Z,77.3
2023-01-29T14:58:58.703Z,78.9
2023-01-29T15:10:58.697Z,79.6
2023-01-29T15:22:58.624Z,79.7
2023-01-29T15:34:58.672Z,79.9
2023-01-29T15:46:58.811Z,80.1
2023-01-29T15:58:58.696Z,80.9
2023-01-29T16:10:58.621Z,81.7
2023-01-29T16:22:58.727Z,82.9
2023-01-29T16:34:58.712Z,83.6
2023-01-29T16:46:58.733Z,84.4
2023-01-29T16:58:58.743Z,84.6
2023-01-29T17:10:58.614Z,83.7
2023-01-29T17:22:58.622Z,81.5
2023-01-29T17:35:00.471Z,81.7
2023-01-29T17:46:58.739Z,81.9
2023-01-29T17:58:58.743Z,82.7
2023-01-29T18:10:58.616Z,84.0
2023-01-29T18:22:58.720Z,85.6
2023-01-29T18:34:58.721Z,85.6
2023-01-29T18:46:58.626Z,86.4
2023-01-29T18:58:58.761Z,85.9
2023-01-29T19:10:58.636Z,86.1
2023-01-29T19:22:58.627Z,85.6
2023-01-29T19:34:58.624Z,85.2
2023-01-29T19:46:58.707Z,84.8
2023-01-29T19:58:58.617Z,85.1
2023-01-29T20:10:58.702Z,85.5
2023-01-29T20:22:58.718Z,85.8
2023-01-29T20:34:58.637Z,86.5
2023-01-29T20:47:01.428Z,86.7
2023-01-29T20:58:58.619Z,86.5
2023-01-29T21:10:58.672Z,86.5
2023-01-29T21:22:59.381Z,86.9
2023-01-29T21:34:58.620Z,87.6
2023-01-29T21:46:58.626Z,88.4
2023-01-29T21:58:58.676Z,88.7
2023-01-29T22:10:58.722Z,90.0
2023-01-29T22:22:58.633Z,90.9
2023-01-29T22:34:58.737Z,90.5
2023-01-29T22:46:59.632Z,91.9
2023-01-29T22:58:58.613Z,91.8
2023-01-29T23:10:58.739Z,91.6
2023-01-29T23:22:58.623Z,93.4
2023-01-29T23:34:58.677Z,95.2
2023-01-29T23:46:58.773Z,95.6
2023-01-29T23:58:58.628Z,96.9
